Time;durP1;ratioP1;P1;durP2;ratioP2;P2;SDS_P1;SDS_P2;PMS_P1;PMS_P2;Temp;Humidity;BMP_temperature;BMP_pressure;BME280_temperature;BME280_humidity;BME280_pressure;Samples;Min_cycle;Max_cycle;Signal;HPM_P1;HPM_P2
2024/04/20 00:01:23;;;;;;;1.67;1.00;;;6.70;99.90;;;;;;5510950;25;20042;-38
2024/04/20 00:03:51;;;;;;;3.35;1.08;;;6.80;99.90;;;;;;5530657;25;20001;-37
2024/04/20 00:06:17;;;;;;;4.07;1.08;;;6.70;99.90;;;;;;5513605;25;19997;-35
2024/04/20 00:08:51;;;;;;;1.67;0.90;;;6.70;99.90;;;;;;5524588;25;20001;-36
2024/04/20 00:11:19;;;;;;;3.80;1.13;;;6.70;99.90;;;;;;5513921;25;20005;-38
2024/04/20 00:13:46;;;;;;;4.10;1.35;;;6.70;99.90;;;;;;5520643;25;19997;-39
2024/04/20 00:16:15;;;;;;;1.65;0.95;;;6.70;99.90;;;;;;5515376;25;19997;-35
2024/04/20 00:18:41;;;;;;;4.40;1.10;;;6.60;99.90;;;;;;5519697;25;20008;-40
2024/04/20 00:21:07;;;;;;;4.38;0.95;;;6.60;99.90;;;;;;5516558;25;19998;-36
2024/04/20 00:23:33;;;;;;;4.00;1.30;;;6.60;99.90;;;;;;5510962;25;20085;-35
2024/04/20 00:26:05;;;;;;;2.92;1.00;;;6.60;99.90;;;;;;5524098;25;20009;-38
2024/04/20 00:28:30;;;;;;;3.00;1.42;;;6.70;99.90;;;;;;5511669;25;20009;-38
2024/04/20 00:31:00;;;;;;;1.83;0.90;;;6.70;99.90;;;;;;5532208;25;20012;-36
2024/04/20 00:33:28;;;;;;;1.70;0.90;;;6.60;99.90;;;;;;5513118;25;20001;-37
2024/04/20 00:35:53;;;;;;;1.92;1.10;;;6.70;99.90;;;;;;5531156;25;19993;-38
2024/04/20 00:38:19;;;;;;;0.70;0.70;;;6.70;99.90;;;;;;5510995;25;20001;-40
2024/04/20 00:40:56;;;;;;;3.53;0.90;;;6.70;99.90;;;;;;5532733;25;20884;-39
2024/04/20 00:43:22;;;;;;;1.95;1.02;;;6.70;99.90;;;;;;5511321;26;20326;-36
2024/04/20 00:45:47;;;;;;;1.80;0.90;;;6.70;99.90;;;;;;5533311;25;20054;-37
2024/04/20 00:48:15;;;;;;;1.65;0.90;;;6.70;99.90;;;;;;5511351;25;20078;-37
2024/04/20 00:50:40;;;;;;;2.22;1.00;;;6.60;99.90;;;;;;5530639;25;20015;-36
2024/04/20 00:53:13;;;;;;;2.20;0.77;;;6.60;99.90;;;;;;5507409;25;19994;-38
2024/04/20 00:55:39;;;;;;;1.00;0.80;;;6.60;99.90;;;;;;5529296;25;20008;-36
2024/04/20 00:58:07;;;;;;;1.65;0.90;;;6.60;99.90;;;;;;5508933;25;20037;-39
2024/04/20 01:00:39;;;;;;;2.92;0.80;;;6.50;99.90;;;;;;5524878;25;20056;-38
2024/04/20 01:03:05;;;;;;;3.53;1.10;;;6.50;99.90;;;;;;5514186;25;20001;-37
2024/04/20 01:05:32;;;;;;;1.67;0.90;;;6.50;99.90;;;;;;5524255;25;20003;-37
2024/04/20 01:07:58;;;;;;;2.40;1.05;;;6.50;99.90;;;;;;5515399;25;19997;-37
2024/04/20 01:10:41;;;;;;;1.33;0.82;;;6.50;99.90;;;;;;5516339;25;19992;-35
2024/04/20 01:13:08;;;;;;;2.55;1.00;;;6.40;99.90;;;;;;5515281;25;20001;-36
2024/04/20 01:15:34;;;;;;;3.30;0.98;;;6.40;99.90;;;;;;5515531;25;20333;-35
2024/04/20 01:18:00;;;;;;;1.08;0.80;;;6.30;99.90;;;;;;5521196;25;20069;-38
2024/04/20 01:20:26;;;;;;;1.63;0.90;;;6.40;99.90;;;;;;5538224;25;19997;-37
2024/04/20 01:22:52;;;;;;;1.17;0.70;;;6.30;99.90;;;;;;5527895;25;20000;-38
2024/04/20 01:25:19;;;;;;;1.95;0.60;;;6.30;99.90;;;;;;5544927;25;20076;-37
2024/04/20 01:27:44;;;;;;;1.25;0.80;;;6.30;99.90;;;;;;5526559;25;20001;-38
2024/04/20 01:30:14;;;;;;;1.50;0.70;;;6.30;99.90;;;;;;5543744;25;20016;-33
2024/04/20 01:32:40;;;;;;;2.42;0.88;;;6.20;99.90;;;;;;5524965;25;20773;-34
2024/04/20 01:35:09;;;;;;;1.08;0.70;;;6.20;99.90;;;;;;5509561;26;20473;-37
2024/04/20 01:37:35;;;;;;;2.38;0.75;;;6.20;99.90;;;;;;5533506;25;20008;-37
2024/04/20 01:40:00;;;;;;;1.55;0.70;;;6.20;99.90;;;;;;5508246;25;19997;-37
2024/04/20 01:42:26;;;;;;;1.58;0.70;;;6.20;99.90;;;;;;5529250;25;20016;-36
2024/04/20 01:44:51;;;;;;;0.57;0.57;;;6.20;99.90;;;;;;5506758;26;20005;-37
2024/04/20 01:47:17;;;;;;;1.90;0.75;;;6.30;99.90;;;;;;5526574;25;20007;-36
2024/04/20 01:49:42;;;;;;;1.20;0.80;;;6.30;99.90;;;;;;5512687;25;20012;-36
2024/04/20 01:52:11;;;;;;;1.38;0.70;;;6.30;99.90;;;;;;5526042;25;20351;-37
2024/04/20 01:54:36;;;;;;;2.03;0.90;;;6.30;99.90;;;;;;5519083;25;20367;-37
2024/04/20 01:57:11;;;;;;;0.70;0.70;;;6.30;99.90;;;;;;5523766;25;20031;-39
2024/04/20 01:59:36;;;;;;;1.83;0.60;;;6.30;99.90;;;;;;5523189;25;20005;-37
2024/04/20 02:02:02;;;;;;;0.80;0.60;;;6.30;99.90;;;;;;5520560;25;20105;-37
2024/04/20 02:04:28;;;;;;;0.95;0.57;;;6.30;99.90;;;;;;5524502;25;20016;-37
2024/04/20 02:06:55;;;;;;;1.55;0.90;;;6.30;99.90;;;;;;5514127;25;20452;-36
2024/04/20 02:09:21;;;;;;;1.13;0.85;;;6.30;99.90;;;;;;5529831;25;20352;-37
2024/04/20 02:11:46;;;;;;;1.40;0.63;;;6.30;99.90;;;;;;5512734;25;19993;-37
2024/04/20 02:14:15;;;;;;;1.75;0.80;;;6.30;99.90;;;;;;5530419;25;20007;-38
2024/04/20 02:16:44;;;;;;;0.95;0.70;;;6.30;99.90;;;;;;5511738;25;20012;-38
2024/04/20 02:19:09;;;;;;;1.70;0.77;;;6.30;99.90;;;;;;5520062;25;20451;-38
2024/04/20 02:21:38;;;;;;;2.55;0.98;;;6.30;99.90;;;;;;5513438;26;20033;-37
2024/04/20 02:24:04;;;;;;;1.55;0.80;;;6.30;99.90;;;;;;5536621;25;20001;-38
2024/04/20 02:26:29;;;;;;;2.30;1.08;;;6.30;99.90;;;;;;5512579;25;20009;-35
2024/04/20 02:28:55;;;;;;;3.20;0.75;;;6.40;99.90;;;;;;5535473;25;19997;-37
2024/04/20 02:31:20;;;;;;;1.60;0.80;;;6.30;99.90;;;;;;5512310;26;20706;-36
2024/04/20 02:33:46;;;;;;;1.98;0.85;;;6.30;99.90;;;;;;5532315;25;19997;-37
2024/04/20 02:36:15;;;;;;;2.45;0.70;;;6.30;99.90;;;;;;5516588;25;20001;-37
2024/04/20 02:38:40;;;;;;;1.77;0.73;;;6.20;99.90;;;;;;5526582;25;20080;-33
2024/04/20 02:41:06;;;;;;;1.63;0.73;;;6.30;99.90;;;;;;5520443;25;20436;-37
2024/04/20 02:43:31;;;;;;;0.70;0.40;;;6.20;99.90;;;;;;5522708;25;20361;-36
2024/04/20 02:46:00;;;;;;;0.63;0.60;;;6.30;99.90;;;;;;5525027;25;20861;-37
2024/04/20 02:48:28;;;;;;;0.77;0.52;;;6.30;99.90;;;;;;5518618;25;19998;-37
2024/04/20 02:50:54;;;;;;;3.00;0.85;;;6.30;99.90;;;;;;5528217;25;20121;-37
2024/04/20 02:53:19;;;;;;;0.90;0.40;;;6.30;99.90;;;;;;5514145;25;19997;-37
2024/04/20 02:55:45;;;;;;;2.95;0.50;;;6.30;99.90;;;;;;5531144;25;19997;-37
2024/04/20 02:58:10;;;;;;;0.80;0.70;;;6.30;99.90;;;;;;5513667;25;20009;-37
2024/04/20 03:00:36;;;;;;;0.55;0.35;;;6.30;99.90;;;;;;5529866;25;20038;-37
2024/04/20 03:03:01;;;;;;;2.42;0.90;;;6.30;99.90;;;;;;5509424;25;20049;-36
2024/04/20 03:05:27;;;;;;;4.25;0.70;;;6.30;99.90;;;;;;5531895;25;19997;-38
2024/04/20 03:07:52;;;;;;;2.78;0.85;;;6.30;99.90;;;;;;5508338;26;20026;-39
2024/04/20 03:10:18;;;;;;;4.95;0.90;;;6.30;99.90;;;;;;5532809;25;20088;-37
2024/04/20 03:12:44;;;;;;;2.78;0.70;;;6.20;99.90;;;;;;5509834;26;20013;-36
2024/04/20 03:15:10;;;;;;;1.98;0.60;;;6.20;99.90;;;;;;5531092;25;19992;-39
2024/04/20 03:17:35;;;;;;;2.47;0.85;;;6.20;99.90;;;;;;5517007;25;20061;-38
2024/04/20 03:20:01;;;;;;;2.55;0.52;;;6.20;99.90;;;;;;5525418;25;20471;-37
2024/04/20 03:22:27;;;;;;;1.58;0.50;;;6.10;99.90;;;;;;5540002;25;20008;-38
2024/04/20 03:24:55;;;;;;;1.10;0.40;;;6.10;99.90;;;;;;5539561;25;20005;-38
2024/04/20 03:27:21;;;;;;;1.77;0.60;;;6.10;99.90;;;;;;5536251;25;20594;-36
2024/04/20 03:29:46;;;;;;;0.50;0.38;;;6.10;99.90;;;;;;5543368;25;20555;-38
2024/04/20 03:32:12;;;;;;;1.25;0.55;;;6.10;99.90;;;;;;5531791;25;20466;-39
2024/04/20 03:34:38;;;;;;;1.63;0.50;;;6.00;99.90;;;;;;5546133;25;20371;-37
2024/04/20 03:37:08;;;;;;;3.60;0.77;;;6.10;99.90;;;;;;5528000;25;20032;-39
2024/04/20 03:39:34;;;;;;;0.95;0.40;;;6.00;99.90;;;;;;5546075;25;20538;-36
2024/04/20 03:42:00;;;;;;;1.08;0.40;;;6.00;99.90;;;;;;5525811;25;20584;-37
2024/04/20 03:44:25;;;;;;;0.65;0.38;;;6.00;99.90;;;;;;5545940;25;20001;-38
2024/04/20 03:46:54;;;;;;;1.00;0.50;;;6.10;99.90;;;;;;5522250;25;20001;-36
2024/04/20 03:49:20;;;;;;;1.63;0.52;;;6.10;99.90;;;;;;5545508;25;20088;-37
2024/04/20 03:51:45;;;;;;;0.52;0.38;;;6.10;99.90;;;;;;5521340;25;20764;-37
2024/04/20 03:54:11;;;;;;;3.67;1.02;;;6.10;99.90;;;;;;5544976;25;20011;-39
2024/04/20 03:56:37;;;;;;;1.60;0.55;;;6.10;99.90;;;;;;5522371;25;19994;-38
2024/04/20 03:59:03;;;;;;;1.88;0.90;;;6.10;99.90;;;;;;5543522;25;20634;-38
2024/04/20 04:01:28;;;;;;;2.92;1.25;;;6.10;99.90;;;;;;5529698;25;20441;-38
2024/04/20 04:03:54;;;;;;;5.60;1.08;;;6.10;99.90;;;;;;5538217;25;20015;-35
2024/04/20 04:06:19;;;;;;;3.70;0.90;;;6.00;99.90;;;;;;5534203;25;20457;-35
2024/04/20 04:08:46;;;;;;;2.85;0.93;;;6.10;99.90;;;;;;5534373;25;20811;-37
2024/04/20 04:11:11;;;;;;;4.35;1.27;;;6.00;99.90;;;;;;5540215;25;19997;-37
2024/04/20 04:13:37;;;;;;;3.40;1.00;;;6.00;99.90;;;;;;5530902;25;20085;-37
2024/04/20 04:16:03;;;;;;;3.75;1.55;;;6.10;99.90;;;;;;5546437;25;19996;-35
2024/04/20 04:18:29;;;;;;;3.80;1.20;;;6.10;99.90;;;;;;5524401;25;20001;-33
2024/04/20 04:20:58;;;;;;;4.55;1.20;;;6.10;99.90;;;;;;5514644;25;20016;-36
2024/04/20 04:23:23;;;;;;;2.75;0.90;;;6.10;99.90;;;;;;5532414;25;19994;-35
2024/04/20 04:25:49;;;;;;;3.38;0.70;;;6.10;99.90;;;;;;5510859;25;20002;-39
2024/04/20 04:28:15;;;;;;;4.10;1.30;;;6.10;99.90;;;;;;5534258;25;20479;-37
2024/04/20 04:30:40;;;;;;;3.08;1.00;;;6.10;99.90;;;;;;5511174;26;20023;-36
2024/04/20 04:33:09;;;;;;;5.97;1.30;;;6.20;99.90;;;;;;5533441;25;19997;-33
2024/04/20 04:35:35;;;;;;;2.88;1.00;;;6.20;99.90;;;;;;5510934;25;20066;-37
2024/04/20 04:38:03;;;;;;;4.25;1.40;;;6.20;99.90;;;;;;5530832;25;20799;-38
2024/04/20 04:40:29;;;;;;;5.20;1.10;;;6.20;99.90;;;;;;5512229;25;20001;-39
2024/04/20 04:42:54;;;;;;;2.50;0.80;;;6.10;99.90;;;;;;5527400;25;20550;-37
2024/04/20 04:45:23;;;;;;;3.20;0.75;;;6.10;99.90;;;;;;5516379;25;20004;-39
2024/04/20 04:47:48;;;;;;;2.63;0.75;;;6.10;99.90;;;;;;5521931;25;20004;-37
2024/04/20 04:50:14;;;;;;;1.67;0.80;;;6.10;99.90;;;;;;5520395;25;20397;-37
2024/04/20 04:52:40;;;;;;;3.22;0.80;;;6.00;99.90;;;;;;5514673;25;19993;-37
2024/04/20 04:55:05;;;;;;;2.28;0.85;;;6.00;99.90;;;;;;5522444;25;19989;-35
2024/04/20 04:57:34;;;;;;;2.90;0.80;;;6.00;99.90;;;;;;5509645;25;20005;-37
2024/04/20 04:59:59;;;;;;;4.82;1.00;;;6.00;99.90;;;;;;5526743;25;20444;-37
2024/04/20 05:02:25;;;;;;;4.38;0.95;;;6.00;99.90;;;;;;5509407;25;20053;-35
2024/04/20 05:04:50;;;;;;;1.85;0.70;;;6.00;99.90;;;;;;5528795;25;20021;-34
2024/04/20 05:07:16;;;;;;;2.38;0.80;;;6.00;99.90;;;;;;5510304;25;19998;-34
2024/04/20 05:09:42;;;;;;;5.07;1.67;;;6.10;99.90;;;;;;5533153;25;20547;-35
2024/04/20 05:12:07;;;;;;;5.15;0.65;;;6.00;99.90;;;;;;5510524;26;20039;-36
2024/04/20 05:14:33;;;;;;;3.95;1.08;;;6.00;99.90;;;;;;5532451;25;20005;-36
2024/04/20 05:16:58;;;;;;;3.92;0.80;;;6.00;99.90;;;;;;5510807;26;19997;-36
2024/04/20 05:19:24;;;;;;;4.38;0.82;;;6.00;99.90;;;;;;5515681;25;20038;-36
2024/04/20 05:21:49;;;;;;;2.67;0.60;;;6.10;99.90;;;;;;5510308;26;19993;-37
2024/04/20 05:24:15;;;;;;;1.77;0.68;;;6.00;99.90;;;;;;5525224;25;19997;-36
2024/04/20 05:26:40;;;;;;;1.92;0.52;;;6.00;99.90;;;;;;5544326;25;20331;-37
2024/04/20 05:29:06;;;;;;;2.33;0.73;;;6.10;99.90;;;;;;5538912;25;20008;-37
2024/04/20 05:31:32;;;;;;;5.07;1.17;;;6.00;99.90;;;;;;5538799;25;20004;-34
2024/04/20 05:34:00;;;;;;;4.00;0.80;;;6.10;99.90;;;;;;5544864;25;20801;-38
2024/04/20 05:36:25;;;;;;;2.25;0.60;;;6.00;99.90;;;;;;5533383;25;20077;-37
2024/04/20 05:38:51;;;;;;;2.40;0.57;;;6.00;99.90;;;;;;5547874;25;20084;-37
2024/04/20 05:41:16;;;;;;;5.05;0.90;;;6.10;99.90;;;;;;5529272;25;20036;-37
2024/04/20 05:43:42;;;;;;;2.00;0.70;;;6.10;99.90;;;;;;5545167;25;20008;-37
2024/04/20 05:46:07;;;;;;;2.83;0.60;;;6.10;99.90;;;;;;5525248;25;20044;-37
2024/04/20 05:48:36;;;;;;;2.15;0.73;;;6.10;99.90;;;;;;5544089;25;20076;-37
2024/04/20 05:51:02;;;;;;;4.22;1.42;;;6.10;99.90;;;;;;5521768;25;20001;-38
2024/04/20 05:53:27;;;;;;;5.35;0.88;;;6.10;99.90;;;;;;5545631;25;20065;-38
2024/04/20 05:55:53;;;;;;;2.28;0.75;;;6.10;99.90;;;;;;5523227;25;20001;-38
2024/04/20 05:58:18;;;;;;;4.15;1.05;;;6.10;99.90;;;;;;5547722;25;20072;-38
2024/04/20 06:00:53;;;;;;;4.25;1.02;;;6.10;99.90;;;;;;5527540;25;20001;-37
2024/04/20 06:03:22;;;;;;;2.22;0.70;;;6.10;99.90;;;;;;5548740;25;20786;-39
2024/04/20 06:05:51;;;;;;;1.75;0.82;;;6.10;99.90;;;;;;5531727;25;20116;-37
2024/04/20 06:08:20;;;;;;;0.90;0.55;;;6.10;99.90;;;;;;5546499;25;20001;-38
2024/04/20 06:10:56;;;;;;;3.17;0.93;;;6.20;99.90;;;;;;5533696;25;20007;-36
2024/04/20 06:13:22;;;;;;;4.93;1.02;;;6.20;99.90;;;;;;5545178;25;20001;-39
2024/04/20 06:15:47;;;;;;;4.85;1.50;;;6.20;99.90;;;;;;5536729;25;20008;-37
2024/04/20 06:18:13;;;;;;;4.90;0.90;;;6.20;99.90;;;;;;5540343;25;20472;-35
2024/04/20 06:20:40;;;;;;;4.22;0.82;;;6.30;99.90;;;;;;5525451;25;20072;-38
2024/04/20 06:23:10;;;;;;;2.40;0.75;;;6.30;99.90;;;;;;5527944;25;19997;-36
2024/04/20 06:25:37;;;;;;;1.30;0.57;;;6.40;99.90;;;;;;5517077;25;19997;-39
2024/04/20 06:28:05;;;;;;;4.10;0.98;;;6.40;99.90;;;;;;5531345;25;20001;-37
2024/04/20 06:30:31;;;;;;;8.93;1.33;;;6.50;99.90;;;;;;5514813;25;20456;-36
2024/04/20 06:32:57;;;;;;;3.80;0.90;;;6.50;99.90;;;;;;5533621;25;20056;-38
2024/04/20 06:35:22;;;;;;;2.28;0.75;;;6.50;99.90;;;;;;5514964;25;20426;-38
2024/04/20 06:37:49;;;;;;;0.65;0.40;;;6.60;99.90;;;;;;5532257;25;20473;-36
2024/04/20 06:40:15;;;;;;;2.35;0.63;;;6.70;99.90;;;;;;5512461;25;19997;-36
2024/04/20 06:42:44;;;;;;;3.30;0.70;;;6.80;99.90;;;;;;5533570;25;20397;-37
2024/04/20 06:45:16;;;;;;;2.75;0.57;;;6.90;99.90;;;;;;5509201;26;20169;-36
2024/04/20 06:47:43;;;;;;;3.67;1.10;;;6.90;99.90;;;;;;5531488;25;20003;-37
2024/04/20 06:50:09;;;;;;;3.72;0.90;;;7.00;99.90;;;;;;5509176;25;20007;-37
2024/04/20 06:52:34;;;;;;;5.53;1.00;;;7.00;99.90;;;;;;5530219;25;20005;-37
2024/04/20 06:55:00;;;;;;;2.92;1.02;;;6.90;99.90;;;;;;5511045;25;20073;-38
2024/04/20 06:57:26;;;;;;;7.07;1.20;;;6.90;99.90;;;;;;5527974;25;19996;-33
2024/04/20 06:59:51;;;;;;;5.47;1.10;;;6.80;99.90;;;;;;5518250;25;20004;-35
2024/04/20 07:02:17;;;;;;;2.65;0.70;;;6.70;99.90;;;;;;5524710;25;19997;-38
2024/04/20 07:04:43;;;;;;;3.00;1.30;;;6.70;99.90;;;;;;5523911;25;20054;-37
2024/04/20 07:07:08;;;;;;;1.85;0.60;;;6.70;99.90;;;;;;5518338;25;19998;-34
2024/04/20 07:09:34;;;;;;;1.65;0.47;;;6.70;99.90;;;;;;5527862;25;20058;-38
2024/04/20 07:12:00;;;;;;;3.25;0.68;;;6.80;99.90;;;;;;5514709;25;20001;-38
2024/04/20 07:14:25;;;;;;;1.40;0.50;;;6.80;99.90;;;;;;5532093;25;20473;-35
2024/04/20 07:16:52;;;;;;;1.92;0.63;;;6.90;99.90;;;;;;5515365;25;20008;-38
2024/04/20 07:19:18;;;;;;;1.48;0.40;;;6.90;99.90;;;;;;5544458;25;19993;-39
2024/04/20 07:21:43;;;;;;;3.25;0.70;;;6.90;99.90;;;;;;5548274;25;20008;-37
2024/04/20 07:24:09;;;;;;;1.05;0.40;;;7.00;99.90;;;;;;5526774;25;20001;-37
2024/04/20 07:26:36;;;;;;;0.90;0.50;;;7.00;99.90;;;;;;5550037;25;20340;-38
2024/04/20 07:29:02;;;;;;;1.80;0.60;;;7.00;99.90;;;;;;5525098;25;20076;-37
2024/04/20 07:31:27;;;;;;;2.22;0.60;;;7.00;99.90;;;;;;5550014;25;20079;-38
2024/04/20 07:33:53;;;;;;;5.25;1.38;;;7.00;99.90;;;;;;5527772;25;20461;-37
2024/04/20 07:36:19;;;;;;;3.30;0.80;;;7.10;99.90;;;;;;5546438;25;20001;-36
2024/04/20 07:38:45;;;;;;;3.20;0.73;;;7.10;99.90;;;;;;5531324;25;20030;-37
2024/04/20 07:41:11;;;;;;;5.55;1.50;;;7.20;99.90;;;;;;5538677;25;20096;-36
2024/04/20 07:43:36;;;;;;;3.03;1.10;;;7.30;99.90;;;;;;5534667;25;20440;-37
2024/04/20 07:46:02;;;;;;;2.92;1.05;;;7.30;99.90;;;;;;5532135;25;20001;-37
2024/04/20 07:48:28;;;;;;;3.38;0.90;;;7.30;99.90;;;;;;5537107;25;20757;-34
2024/04/20 07:50:53;;;;;;;1.17;0.55;;;7.40;99.90;;;;;;5527225;25;20026;-38
2024/04/20 07:53:19;;;;;;;5.60;0.80;;;7.40;99.90;;;;;;5542484;25;20044;-38
2024/04/20 07:55:44;;;;;;;5.53;1.17;;;7.50;99.90;;;;;;5524893;25;19996;-36
2024/04/20 07:58:13;;;;;;;2.13;0.85;;;7.60;99.90;;;;;;5543757;25;20534;-38
2024/04/20 08:00:42;;;;;;;4.03;1.42;;;7.60;99.90;;;;;;5525491;25;20462;-36
2024/04/20 08:03:08;;;;;;;5.32;1.05;;;7.70;99.90;;;;;;5547206;25;20007;-37
2024/04/20 08:05:33;;;;;;;5.18;1.23;;;7.70;99.90;;;;;;5525148;25;20000;-39
2024/04/20 08:07:59;;;;;;;6.57;1.30;;;7.60;99.90;;;;;;5548880;25;20606;-37
2024/04/20 08:10:24;;;;;;;8.40;1.27;;;7.60;99.90;;;;;;5523738;25;20039;-37
2024/04/20 08:12:50;;;;;;;4.88;0.95;;;7.60;99.90;;;;;;5548923;25;20001;-38
2024/04/20 08:15:16;;;;;;;2.83;0.95;;;7.60;99.90;;;;;;5528475;25;20496;-36
2024/04/20 08:17:42;;;;;;;3.85;1.00;;;7.70;99.90;;;;;;5544971;25;20008;-37
2024/04/20 08:20:08;;;;;;;5.80;1.48;;;7.60;99.90;;;;;;5533064;25;20977;-36
2024/04/20 08:22:33;;;;;;;3.35;1.17;;;7.60;99.90;;;;;;5543269;25;20068;-32
2024/04/20 08:24:59;;;;;;;4.10;1.00;;;7.70;99.90;;;;;;5536689;25;20012;-36
2024/04/20 08:27:25;;;;;;;2.38;0.65;;;7.80;99.90;;;;;;5535695;25;20008;-37
2024/04/20 08:29:51;;;;;;;6.53;1.17;;;7.90;99.90;;;;;;5541412;25;20005;-37
2024/04/20 08:32:16;;;;;;;9.02;1.50;;;8.00;99.90;;;;;;5530464;25;20015;-38
2024/04/20 08:34:42;;;;;;;6.03;1.27;;;8.00;99.90;;;;;;5542422;25;20015;-35
2024/04/20 08:37:08;;;;;;;3.03;0.98;;;8.00;99.90;;;;;;5524000;25;20064;-39
2024/04/20 08:39:34;;;;;;;3.75;1.02;;;8.00;99.90;;;;;;5542472;25;20452;-36
2024/04/20 08:42:07;;;;;;;1.38;0.70;;;8.00;99.90;;;;;;5524846;25;20007;-38
2024/04/20 08:44:34;;;;;;;4.25;1.10;;;8.00;99.90;;;;;;5543732;25;20076;-39
2024/04/20 08:47:01;;;;;;;7.13;1.30;;;8.00;99.90;;;;;;5522955;25;20778;-38
2024/04/20 08:49:28;;;;;;;4.65;1.10;;;7.80;99.90;;;;;;5547175;25;20460;-37
2024/04/20 08:51:54;;;;;;;4.72;1.10;;;7.70;99.90;;;;;;5524119;25;20024;-37
2024/04/20 08:54:22;;;;;;;4.75;1.20;;;7.60;99.90;;;;;;5548827;25;20436;-38
2024/04/20 08:56:47;;;;;;;6.38;1.20;;;7.50;99.90;;;;;;5525003;25;20001;-38
2024/04/20 08:59:13;;;;;;;5.78;1.40;;;7.50;99.90;;;;;;5547418;25;20000;-37
2024/04/20 09:01:40;;;;;;;2.88;0.88;;;7.50;99.90;;;;;;5530146;25;20001;-38
2024/04/20 09:04:07;;;;;;;5.50;1.27;;;7.60;99.90;;;;;;5543628;25;19996;-38
2024/04/20 09:06:37;;;;;;;3.78;0.93;;;7.70;99.90;;;;;;5533779;25;20009;-38
2024/04/20 09:09:03;;;;;;;2.47;0.70;;;7.70;99.90;;;;;;5539514;25;20071;-39
2024/04/20 09:11:30;;;;;;;3.35;1.00;;;7.70;99.90;;;;;;5537941;25;20507;-37
2024/04/20 09:14:00;;;;;;;2.83;0.80;;;7.50;99.90;;;;;;5534658;25;20011;-37
2024/04/20 09:16:27;;;;;;;1.48;0.60;;;7.60;99.90;;;;;;5540529;25;20791;-35
2024/04/20 09:18:52;;;;;;;2.00;0.70;;;7.60;99.90;;;;;;5530280;25;19997;-37
2024/04/20 09:21:18;;;;;;;2.05;0.60;;;7.70;99.90;;;;;;5513337;25;20050;-37
2024/04/20 09:23:43;;;;;;;1.13;0.57;;;7.80;99.90;;;;;;5531073;25;20009;-37
2024/04/20 09:26:11;;;;;;;1.60;0.80;;;7.90;99.90;;;;;;5512876;25;20008;-40
2024/04/20 09:28:38;;;;;;;2.85;0.90;;;8.00;99.90;;;;;;5530543;25;20008;-40
2024/04/20 09:31:10;;;;;;;8.25;1.58;;;8.20;99.90;;;;;;5507995;25;20005;-37
2024/04/20 09:33:36;;;;;;;5.55;1.25;;;8.30;99.90;;;;;;5520726;25;20792;-34
2024/04/20 09:36:01;;;;;;;4.32;1.30;;;8.30;99.90;;;;;;5545009;25;19993;-37
2024/04/20 09:38:28;;;;;;;3.22;0.90;;;8.30;99.90;;;;;;5521171;25;20002;-38
2024/04/20 09:40:54;;;;;;;3.38;0.90;;;8.20;99.90;;;;;;5544956;25;19997;-39
2024/04/20 09:43:23;;;;;;;3.13;0.90;;;8.20;99.90;;;;;;5522952;25;20013;-37
2024/04/20 09:45:51;;;;;;;3.67;0.95;;;8.10;99.90;;;;;;5546974;25;20000;-37
2024/04/20 09:48:28;;;;;;;1.73;0.70;;;7.90;99.90;;;;;;5526832;25;20005;-37
2024/04/20 09:51:21;;;;;;;4.10;1.02;;;7.80;99.90;;;;;;5542958;25;19997;-35
2024/04/20 09:53:51;;;;;;;;;;;7.70;99.90;;;;;;5521783;25;20002;-38
2024/04/20 09:56:19;;;;;;;3.92;1.23;;;7.60;99.90;;;;;;5544069;25;19979;-34
2024/04/20 09:58:47;;;;;;;3.47;0.70;;;7.60;99.90;;;;;;5523310;25;20008;-34
2024/04/20 10:01:12;;;;;;;7.13;1.48;;;7.60;99.90;;;;;;5542320;25;20065;-38
2024/04/20 10:03:38;;;;;;;4.30;1.30;;;7.60;99.90;;;;;;5527099;25;20455;-37
2024/04/20 10:06:05;;;;;;;3.17;1.00;;;7.70;99.90;;;;;;5540373;25;20003;-38
2024/04/20 10:08:32;;;;;;;4.47;0.75;;;7.70;99.90;;;;;;5535056;25;20374;-36
2024/04/20 10:10:58;;;;;;;7.68;1.83;;;7.80;99.90;;;;;;5540269;25;20007;-35
2024/04/20 10:13:25;;;;;;;5.43;1.25;;;7.90;99.90;;;;;;5543387;25;19993;-38
2024/04/20 10:15:54;;;;;;;4.30;1.13;;;8.00;99.90;;;;;;5534520;25;20004;-37
2024/04/20 10:18:23;;;;;;;4.72;1.27;;;8.10;99.90;;;;;;5546921;25;20004;-38
2024/04/20 10:20:58;;;;;;;7.10;1.20;;;8.20;99.90;;;;;;5541083;25;19989;-37
2024/04/20 10:23:24;;;;;;;4.07;1.38;;;8.40;99.90;;;;;;5546829;25;20001;-37
2024/04/20 10:25:53;;;;;;;4.97;1.65;;;8.60;99.90;;;;;;5527080;25;20015;-36
2024/04/20 10:28:32;;;;;;;4.85;1.30;;;8.80;99.90;;;;;;5544889;25;20008;-38
2024/04/20 10:30:59;;;;;;;2.55;0.93;;;8.90;99.90;;;;;;5526292;25;20194;-38
2024/04/20 10:33:30;;;;;;;6.57;1.35;;;9.10;99.90;;;;;;5543841;25;19997;-38
2024/04/20 10:36:06;;;;;;;5.18;1.60;;;9.10;99.90;;;;;;5526673;25;20448;-36
2024/04/20 10:38:33;;;;;;;6.65;1.40;;;9.10;99.90;;;;;;5543797;25;20044;-39
2024/04/20 10:41:17;;;;;;;3.97;1.15;;;9.00;99.90;;;;;;5528130;25;19997;-37
2024/04/20 10:43:47;;;;;;;3.53;1.00;;;8.90;99.90;;;;;;5547331;25;20516;-37
2024/04/20 10:46:17;;;;;;;7.30;1.27;;;8.70;99.90;;;;;;5529814;25;20381;-39
2024/04/20 10:48:42;;;;;;;4.20;1.17;;;8.70;99.90;;;;;;5550118;25;19993;-38
2024/04/20 10:51:12;;;;;;;6.05;1.20;;;8.60;99.90;;;;;;5525558;25;20003;-38
2024/04/20 10:53:40;;;;;;;4.80;1.35;;;8.70;99.90;;;;;;5549814;25;20769;-39
2024/04/20 10:56:08;;;;;;;6.95;1.48;;;8.80;99.90;;;;;;5525276;25;20062;-38
2024/04/20 10:58:37;;;;;;;4.57;1.10;;;8.90;99.90;;;;;;5549518;25;20008;-39
2024/04/20 11:01:04;;;;;;;5.10;1.10;;;8.90;99.90;;;;;;5526395;25;20011;-37
2024/04/20 11:03:31;;;;;;;3.65;1.48;;;9.10;99.90;;;;;;5550184;25;21041;-38
2024/04/20 11:05:58;;;;;;;4.10;1.15;;;9.20;99.90;;;;;;5529059;25;20005;-37
2024/04/20 11:08:25;;;;;;;4.55;1.42;;;9.50;99.90;;;;;;5547763;25;19996;-37
2024/04/20 11:10:54;;;;;;;5.82;1.73;;;9.70;99.90;;;;;;5531973;25;20012;-36
2024/04/20 11:13:20;;;;;;;5.38;1.20;;;9.80;99.90;;;;;;5540983;25;20266;-38
2024/04/20 11:15:50;;;;;;;5.35;1.25;;;9.80;99.90;;;;;;5530118;25;20130;-35
2024/04/20 11:18:19;;;;;;;3.25;1.00;;;9.80;99.90;;;;;;5519019;25;19997;-38
2024/04/20 11:20:45;;;;;;;3.85;1.02;;;9.80;99.90;;;;;;5526762;25;20006;-37
2024/04/20 11:23:10;;;;;;;2.85;1.05;;;9.70;99.90;;;;;;5530137;25;20942;-37
2024/04/20 11:25:36;;;;;;;6.57;1.30;;;9.50;99.90;;;;;;5540048;25;20009;-38
2024/04/20 11:28:03;;;;;;;3.17;0.77;;;9.50;99.90;;;;;;5527389;25;20008;-37
2024/04/20 11:30:37;;;;;;;4.75;1.10;;;9.40;99.90;;;;;;5544440;25;19997;-38
2024/04/20 11:33:02;;;;;;;4.22;0.95;;;9.40;99.90;;;;;;5529488;25;19993;-39
2024/04/20 11:35:31;;;;;;;5.55;1.20;;;9.30;99.90;;;;;;5512153;25;20050;-35
2024/04/20 11:38:02;;;;;;;3.08;0.73;;;9.30;99.90;;;;;;5533188;25;20012;-33
2024/04/20 11:40:27;;;;;;;5.70;0.90;;;9.20;99.90;;;;;;5513086;25;20002;-38
2024/04/20 11:43:03;;;;;;;1.65;0.52;;;9.20;99.90;;;;;;5534990;25;20290;-37
2024/04/20 11:45:29;;;;;;;3.33;0.70;;;9.30;99.90;;;;;;5512724;25;20013;-37
2024/04/20 11:47:56;;;;;;;3.33;0.60;;;9.40;99.90;;;;;;5534558;25;19998;-32
2024/04/20 11:50:24;;;;;;;1.20;0.60;;;9.60;99.90;;;;;;5512056;26;20001;-38
2024/04/20 11:55:43;;;;;;;4.88;0.80;;;9.80;99.90;;;;;;5508393;26;20081;-37
2024/04/20 11:58:09;;;;;;;3.95;1.27;;;9.90;99.90;;;;;;5532108;25;20801;-37
2024/04/20 12:00:38;;;;;;;5.18;1.33;;;9.90;99.90;;;;;;5509526;25;20050;-39
2024/04/20 12:03:05;;;;;;;2.10;0.88;;;9.90;99.90;;;;;;5532204;25;20076;-35
2024/04/20 12:05:30;;;;;;;2.05;0.77;;;9.90;99.90;;;;;;5509886;26;20126;-37
2024/04/20 12:07:56;;;;;;;4.22;0.98;;;9.90;99.90;;;;;;5531120;25;20352;-38
2024/04/20 12:10:22;;;;;;;5.13;0.98;;;9.90;99.90;;;;;;5516168;25;20002;-38
2024/04/20 12:12:48;;;;;;;1.88;0.95;;;10.00;99.90;;;;;;5525691;25;20773;-37
2024/04/20 12:15:13;;;;;;;2.78;0.80;;;10.20;99.90;;;;;;5519556;25;20013;-39
2024/04/20 12:17:39;;;;;;;3.80;0.85;;;10.20;99.90;;;;;;5518856;25;20891;-39
2024/04/20 12:20:07;;;;;;;3.10;1.00;;;10.30;99.90;;;;;;5538661;25;19993;-38
2024/04/20 12:22:33;;;;;;;1.90;1.00;;;10.40;99.90;;;;;;5540621;25;20005;-38
2024/04/20 12:24:58;;;;;;;2.22;0.52;;;10.50;99.90;;;;;;5528106;25;20000;-38
2024/04/20 12:27:24;;;;;;;5.07;1.10;;;10.50;99.90;;;;;;5543135;25;20509;-37
2024/04/20 12:29:49;;;;;;;3.65;1.08;;;10.40;99.90;;;;;;5524393;25;20306;-38
2024/04/20 12:32:16;;;;;;;7.45;1.08;;;10.40;99.90;;;;;;5544579;25;20001;-37
2024/04/20 12:34:42;;;;;;;5.30;0.88;;;10.30;99.90;;;;;;5527818;25;20019;-38
2024/04/20 12:37:09;;;;;;;5.93;1.23;;;10.10;99.90;;;;;;5548707;25;20468;-39
2024/04/20 12:39:35;;;;;;;6.18;1.15;;;9.80;99.90;;;;;;5524984;25;20454;-36
2024/04/20 12:42:01;;;;;;;4.85;1.20;;;9.50;99.90;;;;;;5549413;25;20566;-37
2024/04/20 12:44:27;;;;;;;3.83;1.00;;;9.30;99.90;;;;;;5524762;25;20005;-38
2024/04/20 12:46:52;;;;;;;4.25;1.08;;;9.20;99.90;;;;;;5548492;25;19993;-38
2024/04/20 12:49:21;;;;;;;2.90;0.70;;;9.30;99.90;;;;;;5530777;25;20070;-37
2024/04/20 12:51:49;;;;;;;1.60;0.63;;;9.40;99.90;;;;;;5544607;25;20008;-37
2024/04/20 12:54:15;;;;;;;3.10;0.98;;;9.50;99.90;;;;;;5534258;25;21077;-38
2024/04/20 12:56:40;;;;;;;3.28;0.90;;;9.70;99.90;;;;;;5541195;25;20008;-38
2024/04/20 12:59:06;;;;;;;3.45;1.02;;;9.80;99.90;;;;;;5537740;25;20016;-38